createdAt,value
2017-11-29T00:00:33.240Z,99168
2017-11-29T00:01:33.313Z,99176
2017-11-29T00:02:34.363Z,99176
2017-11-29T00:03:34.386Z,99170
2017-11-29T00:04:33.430Z,99175
2017-11-29T00:05:34.436Z,99167
2017-11-29T00:06:33.554Z,99173
2017-11-29T00:07:33.596Z,99179
2017-11-29T00:08:34.614Z,99180
2017-11-29T00:09:34.712Z,99173
2017-11-29T00:10:33.776Z,99180
2017-11-29T00:11:34.796Z,99177
2017-11-29T00:12:33.903Z,99178
2017-11-29T00:13:33.975Z,99180
2017-11-29T00:14:34.033Z,99170
2017-11-29T00:15:35.085Z,99177
2017-11-29T00:16:34.166Z,99179
2017-11-29T00:17:35.200Z,99178
2017-11-29T00:18:35.221Z,99183
2017-11-29T00:19:35.269Z,99181
2017-11-29T00:20:34.315Z,99183
2017-11-29T00:21:35.368Z,99180
2017-11-29T00:22:35.471Z,99182
2017-11-29T00:23:35.599Z,99178
2017-11-29T00:24:35.603Z,99177
2017-11-29T00:25:35.672Z,99172
2017-11-29T00:26:34.782Z,99178
2017-11-29T00:27:35.817Z,99170
2017-11-29T00:28:35.844Z,99174
2017-11-29T00:29:35.889Z,99172
2017-11-29T00:30:35.940Z,99172
2017-11-29T00:31:34.989Z,99175
2017-11-29T00:32:35.083Z,99172
2017-11-29T00:33:35.159Z,99180
2017-11-29T00:34:36.164Z,99172
2017-11-29T00:35:35.237Z,99172
2017-11-29T00:36:36.290Z,99173
2017-11-29T00:37:36.341Z,99173
2017-11-29T00:38:35.390Z,99173
2017-11-29T00:39:35.414Z,99167
2017-11-29T00:40:36.508Z,99172
2017-11-29T00:41:35.586Z,99159
2017-11-29T00:42:35.664Z,99168
2017-11-29T00:43:36.654Z,99167
2017-11-29T00:44:35.755Z,99168
2017-11-29T00:45:36.750Z,99166
2017-11-29T00:46:35.851Z,99166
2017-11-29T00:47:36.911Z,99155
2017-11-29T00:48:36.907Z,99163
2017-11-29T00:49:36.946Z,99162
2017-11-29T00:50:36.064Z,99158
2017-11-29T00:51:37.140Z,99163
2017-11-29T00:52:36.191Z,99155
2017-11-29T00:53:36.231Z,99163
2017-11-29T00:54:37.226Z,99160
2017-11-29T00:55:36.265Z,99159
2017-11-29T00:56:36.302Z,99162
2017-11-29T00:57:37.276Z,99156
2017-11-29T00:58:37.365Z,99149
2017-11-29T00:59:36.472Z,99160
2017-11-29T01:00:37.533Z,99154
2017-11-29T01:01:36.575Z,99145
2017-11-29T01:02:36.676Z,99153
2017-11-29T01:03:37.702Z,99152
2017-11-29T01:04:37.695Z,99155
2017-11-29T01:05:36.763Z,99153
2017-11-29T01:06:37.722Z,99152
2017-11-29T01:07:36.781Z,99155
2017-11-29T01:08:36.838Z,99156
2017-11-29T01:09:36.867Z,99155
2017-11-29T01:10:36.974Z,99152
2017-11-29T01:11:37.929Z,99147
2017-11-29T01:12:37.033Z,99160
2017-11-29T01:13:37.108Z,99155
2017-11-29T01:14:38.113Z,99148
2017-11-29T01:15:37.216Z,99156
2017-11-29T01:16:38.266Z,99157
2017-11-29T01:17:37.351Z,99150
2017-11-29T01:18:37.438Z,99152
2017-11-29T01:19:38.453Z,99147
2017-11-29T01:20:37.514Z,99150
2017-11-29T01:21:37.583Z,99141
2017-11-29T01:22:38.586Z,99150
2017-11-29T01:23:37.658Z,99151
2017-11-29T01:24:37.663Z,99154
2017-11-29T01:25:37.717Z,99152
2017-11-29T01:26:37.777Z,99153
2017-11-29T01:27:37.858Z,99154
2017-11-29T01:28:37.851Z,99145
2017-11-29T01:29:38.904Z,99156
2017-11-29T01:30:38.021Z,99155
2017-11-29T01:31:38.047Z,99154
2017-11-29T01:32:38.093Z,99144
2017-11-29T01:33:39.119Z,99154
2017-11-29T01:34:39.157Z,99152
2017-11-29T01:35:38.176Z,99142
2017-11-29T01:36:39.190Z,99147
2017-11-29T01:37:39.254Z,99148
2017-11-29T01:38:38.351Z,99148
2017-11-29T01:39:38.430Z,99145
2017-11-29T01:40:38.487Z,99151
2017-11-29T01:41:39.530Z,99149
2017-11-29T01:42:38.604Z,99147
2017-11-29T01:43:38.682Z,99150
2017-11-29T01:44:38.788Z,99149
2017-11-29T01:45:39.746Z,99148
2017-11-29T01:46:38.814Z,99148
2017-11-29T01:47:39.822Z,99150
2017-11-29T01:48:39.877Z,99152
2017-11-29T01:49:39.908Z,99150
2017-11-29T01:50:38.959Z,99147
2017-11-29T01:51:39.984Z,99144
2017-11-29T01:52:39.043Z,99141
2017-11-29T01:53:40.107Z,99148
2017-11-29T01:54:40.123Z,99145
2017-11-29T01:55:40.182Z,99143
2017-11-29T01:56:40.276Z,99149
2017-11-29T01:57:40.330Z,99147
2017-11-29T01:58:39.418Z,99148
2017-11-29T01:59:40.452Z,99141
2017-11-29T02:00:41.036Z,99145
2017-11-29T02:01:40.549Z,99145
2017-11-29T02:02:39.670Z,99148
2017-11-29T02:03:39.735Z,99137
2017-11-29T02:04:40.797Z,99148
2017-11-29T02:05:39.878Z,99145
2017-11-29T02:06:40.948Z,99147
2017-11-29T02:07:41.039Z,99148
2017-11-29T02:08:41.079Z,99147
2017-11-29T02:09:41.135Z,99145
2017-11-29T02:10:41.215Z,99146
2017-11-29T02:11:40.306Z,99144
2017-11-29T02:12:40.291Z,99141
2017-11-29T02:13:41.342Z,99144
2017-11-29T02:14:40.413Z,99137
2017-11-29T02:15:40.453Z,99139
2017-11-29T02:16:40.504Z,99141
2017-11-29T02:17:41.557Z,99144
2017-11-29T02:18:40.700Z,99149
2017-11-29T02:19:40.750Z,99145
2017-11-29T02:20:40.749Z,99144
2017-11-29T02:21:40.836Z,99147
2017-11-29T02:22:40.861Z,99144
2017-11-29T02:23:41.885Z,99148
2017-11-29T02:24:41.911Z,99148
2017-11-29T02:25:41.912Z,99144
2017-11-29T02:26:41.963Z,99145
2017-11-29T02:27:41.041Z,99135
2017-11-29T02:28:41.051Z,99145
2017-11-29T02:29:41.056Z,99145
2017-11-29T02:30:41.173Z,99141
2017-11-29T02:31:42.160Z,99141
2017-11-29T02:32:42.230Z,99134
2017-11-29T02:33:42.271Z,99143
2017-11-29T02:34:41.337Z,99145
2017-11-29T02:35:41.410Z,99144
2017-11-29T02:36:42.433Z,99137
2017-11-29T02:37:42.474Z,99149
2017-11-29T02:38:42.519Z,99148
2017-11-29T02:39:41.586Z,99147
2017-11-29T02:40:41.636Z,99148
2017-11-29T02:41:41.695Z,99141
2017-11-29T02:42:42.683Z,99150
2017-11-29T02:43:42.849Z,99146
2017-11-29T02:44:42.768Z,99146
2017-11-29T02:45:42.774Z,99145
2017-11-29T02:46:42.807Z,99143
2017-11-29T02:47:41.903Z,99140
2017-11-29T02:48:42.903Z,99143
2017-11-29T02:49:42.993Z,99142
2017-11-29T02:50:43.055Z,99140
2017-11-29T02:51:42.096Z,99136
2017-11-29T02:52:42.192Z,99143
2017-11-29T02:53:43.184Z,99139
2017-11-29T02:54:42.223Z,99138
2017-11-29T02:55:43.197Z,99137
2017-11-29T02:56:42.285Z,99137
2017-11-29T02:57:42.329Z,99136
2017-11-29T02:58:43.410Z,99133
2017-11-29T02:59:43.447Z,99133
2017-11-29T03:00:43.504Z,99137
2017-11-29T03:01:43.528Z,99139
2017-11-29T03:02:43.585Z,99135
2017-11-29T03:03:43.590Z,99132
2017-11-29T03:04:43.664Z,99134
2017-11-29T03:05:43.758Z,99135
2017-11-29T03:06:42.852Z,99135
2017-11-29T03:07:43.899Z,99135
2017-11-29T03:08:42.950Z,99135
2017-11-29T03:09:43.036Z,99132
2017-11-29T03:10:43.111Z,99138
2017-11-29T03:11:44.105Z,99137
2017-11-29T03:12:44.135Z,99136
2017-11-29T03:13:44.158Z,99138
2017-11-29T03:14:44.260Z,99136
2017-11-29T03:15:43.326Z,99136
2017-11-29T03:16:43.321Z,99134
2017-11-29T03:17:44.386Z,99132
2017-11-29T03:18:44.385Z,99127
2017-11-29T03:19:43.469Z,99134
2017-11-29T03:20:44.473Z,99137
2017-11-29T03:21:44.492Z,99137
2017-11-29T03:22:44.525Z,99129
2017-11-29T03:23:43.601Z,99137
2017-11-29T03:24:44.600Z,99132
2017-11-29T03:25:44.699Z,99134
2017-11-29T03:26:43.819Z,99133
2017-11-29T03:27:43.848Z,99132
2017-11-29T03:28:43.945Z,99130
2017-11-29T03:29:44.981Z,99126
2017-11-29T03:30:44.056Z,99134
2017-11-29T03:31:44.148Z,99136
2017-11-29T03:32:45.189Z,99131
2017-11-29T03:33:44.269Z,99134
2017-11-29T03:34:44.333Z,99124
2017-11-29T03:35:44.372Z,99135
2017-11-29T03:36:44.419Z,99135
2017-11-29T03:37:44.484Z,99132
2017-11-29T03:38:45.520Z,99122
2017-11-29T03:39:45.580Z,99134
2017-11-29T03:40:44.669Z,99134
2017-11-29T03:41:45.705Z,99135
2017-11-29T03:42:44.724Z,99134
2017-11-29T03:43:45.751Z,99138
2017-11-29T03:44:45.823Z,99134
2017-11-29T03:45:44.929Z,99132
2017-11-29T03:46:44.931Z,99132
2017-11-29T03:47:45.965Z,99130
2017-11-29T03:48:46.025Z,99136
2017-11-29T03:49:46.116Z,99131
2017-11-29T03:50:45.199Z,99132
2017-11-29T03:51:46.242Z,99133
2017-11-29T03:52:46.313Z,99133
2017-11-29T03:53:45.354Z,99129
2017-11-29T03:54:46.376Z,99129
2017-11-29T03:55:46.416Z,99129
2017-11-29T03:56:46.507Z,99131
2017-11-29T03:57:46.542Z,99132
2017-11-29T03:58:46.606Z,99127
2017-11-29T03:59:45.654Z,99128
2017-11-29T04:00:46.733Z,99128
2017-11-29T04:01:45.777Z,99124
2017-11-29T04:02:45.823Z,99128
2017-11-29T04:03:45.866Z,99128
2017-11-29T04:04:47.737Z,99129
2017-11-29T04:05:46.953Z,99130
2017-11-29T04:06:47.000Z,99128
2017-11-29T04:07:46.030Z,99127
2017-11-29T04:08:47.069Z,99127
2017-11-29T04:09:47.123Z,99127
2017-11-29T04:10:46.127Z,99122
2017-11-29T04:11:47.146Z,99126
2017-11-29T04:12:47.193Z,99125
2017-11-29T04:13:47.224Z,99126
2017-11-29T04:14:46.355Z,99127
2017-11-29T04:15:47.378Z,99125
2017-11-29T04:16:47.449Z,99124
2017-11-29T04:17:47.510Z,99119
2017-11-29T04:18:46.587Z,99129
2017-11-29T04:19:47.601Z,99123
2017-11-29T04:20:47.681Z,99124
2017-11-29T04:21:46.719Z,99127
2017-11-29T04:22:47.736Z,99125
2017-11-29T04:23:46.841Z,99119
2017-11-29T04:24:47.881Z,99125
2017-11-29T04:25:46.984Z,99128
2017-11-29T04:26:48.040Z,99127
2017-11-29T04:27:47.104Z,99118
2017-11-29T04:28:48.137Z,99128
2017-11-29T04:29:47.178Z,99120
2017-11-29T04:30:47.263Z,99120
2017-11-29T04:31:47.351Z,99118
2017-11-29T04:32:48.392Z,99116
2017-11-29T04:33:47.505Z,99118
2017-11-29T04:34:47.593Z,99119
2017-11-29T04:35:47.657Z,99118
2017-11-29T04:36:48.722Z,99121
2017-11-29T04:37:47.861Z,99118
2017-11-29T04:38:48.846Z,99121
2017-11-29T04:39:47.953Z,99121
2017-11-29T04:40:47.961Z,99121
2017-11-29T04:41:48.027Z,99120
2017-11-29T04:42:48.100Z,99114
2017-11-29T04:43:49.127Z,99115
2017-11-29T04:44:48.210Z,99116
2017-11-29T04:45:49.268Z,99111
2017-11-29T04:46:48.336Z,99119
2017-11-29T04:47:48.427Z,99118
2017-11-29T04:48:49.453Z,99112
2017-11-29T04:49:48.511Z,99111
2017-11-29T04:50:48.589Z,99105
2017-11-29T04:51:48.664Z,99113
2017-11-29T04:52:49.735Z,99112
2017-11-29T04:53:49.751Z,99105
2017-11-29T04:54:48.801Z,99113
2017-11-29T04:55:48.881Z,99116
2017-11-29T04:56:48.875Z,99115
2017-11-29T04:57:49.968Z,99108
2017-11-29T04:58:49.074Z,99114
2017-11-29T04:59:50.052Z,99117
2017-11-29T05:00:50.112Z,99114
2017-11-29T05:01:49.241Z,99115
2017-11-29T05:02:50.234Z,99118
2017-11-29T05:03:50.250Z,99117
2017-11-29T05:04:49.299Z,99117
2017-11-29T05:05:50.337Z,99118
2017-11-29T05:06:50.380Z,99118
2017-11-29T05:07:50.395Z,99120
2017-11-29T05:08:49.446Z,99116
2017-11-29T05:09:50.454Z,99120
2017-11-29T05:10:50.474Z,99115
2017-11-29T05:11:50.553Z,99116
2017-11-29T05:12:49.619Z,99117
2017-11-29T05:13:50.623Z,99114
2017-11-29T05:14:49.720Z,99118
2017-11-29T05:15:50.749Z,99116
2017-11-29T05:16:49.821Z,99113
2017-11-29T05:17:49.860Z,99117
2017-11-29T05:18:50.880Z,99115
2017-11-29T05:19:50.919Z,99115
2017-11-29T05:20:49.960Z,99113
2017-11-29T05:21:50.039Z,99110
2017-11-29T05:22:50.117Z,99112
2017-11-29T05:23:51.188Z,99112
2017-11-29T05:24:51.240Z,99113
2017-11-29T05:25:51.302Z,99103
2017-11-29T05:26:50.389Z,99112
2017-11-29T05:27:51.445Z,99113
2017-11-29T05:28:50.477Z,99117
2017-11-29T05:29:51.514Z,99111
2017-11-29T05:30:50.568Z,99110
2017-11-29T05:31:51.589Z,99112
2017-11-29T05:32:51.649Z,99113
2017-11-29T05:33:50.767Z,99113
2017-11-29T05:34:50.773Z,99117
2017-11-29T05:35:50.781Z,99115
2017-11-29T05:36:50.783Z,99117
2017-11-29T05:37:51.827Z,99121
2017-11-29T05:38:50.851Z,99068
2017-11-29T05:39:51.839Z,99119
2017-11-29T05:40:52.226Z,99125
2017-11-29T05:41:51.920Z,99119
2017-11-29T05:42:51.031Z,99119
2017-11-29T05:43:52.078Z,99118
2017-11-29T05:44:51.186Z,99122
2017-11-29T05:45:52.208Z,99125
2017-11-29T05:46:52.298Z,99127
2017-11-29T05:47:52.384Z,99120
2017-11-29T05:48:51.450Z,99118
2017-11-29T05:49:52.504Z,99117
2017-11-29T05:50:51.585Z,99119
2017-11-29T05:51:52.636Z,99116
2017-11-29T05:52:51.705Z,99117
2017-11-29T05:53:51.729Z,99124
2017-11-29T05:54:52.781Z,99112
2017-11-29T05:55:51.824Z,99123
2017-11-29T05:56:51.852Z,99119
2017-11-29T05:57:52.853Z,99117
2017-11-29T05:58:52.868Z,99122
2017-11-29T05:59:52.003Z,99122
2017-11-29T06:00:52.079Z,99111
2017-11-29T06:01:53.111Z,99122
2017-11-29T06:02:52.222Z,99118
2017-11-29T06:03:52.308Z,99113
2017-11-29T06:04:52.404Z,99122
2017-11-29T06:05:52.485Z,99121
2017-11-29T06:06:52.511Z,99114
2017-11-29T06:07:52.533Z,99123
2017-11-29T06:08:53.587Z,99121
2017-11-29T06:09:53.592Z,99126
2017-11-29T06:10:52.644Z,99125
2017-11-29T06:11:53.644Z,99132
2017-11-29T06:12:53.648Z,99126
2017-11-29T06:13:53.671Z,99130
2017-11-29T06:14:52.817Z,99132
2017-11-29T06:15:53.743Z,99135
2017-11-29T06:16:52.849Z,99136
2017-11-29T06:17:52.927Z,99134
2017-11-29T06:18:52.957Z,99137
2017-11-29T06:19:53.983Z,99136
2017-11-29T06:20:53.955Z,99132
2017-11-29T06:21:54.033Z,99131
2017-11-29T06:22:53.124Z,99131
2017-11-29T06:23:53.202Z,99133
2017-11-29T06:24:53.295Z,99127
2017-11-29T06:25:53.351Z,99135
2017-11-29T06:26:53.440Z,99134
2017-11-29T06:27:53.481Z,99128
2017-11-29T06:28:54.507Z,99136
2017-11-29T06:29:54.581Z,99134
2017-11-29T06:30:54.695Z,99136
2017-11-29T06:31:54.588Z,99133
2017-11-29T06:32:55.305Z,99139
2017-11-29T06:33:54.572Z,99139
2017-11-29T06:34:54.603Z,99138
2017-11-29T06:35:54.596Z,99136
2017-11-29T06:36:53.661Z,99135
2017-11-29T06:37:53.689Z,99126
2017-11-29T06:38:54.673Z,99135
2017-11-29T06:39:54.738Z,99130
2017-11-29T06:40:53.771Z,99127
2017-11-29T06:41:54.677Z,99137
2017-11-29T06:42:53.938Z,99137
2017-11-29T06:43:53.915Z,99139
2017-11-29T06:44:54.994Z,99139
2017-11-29T06:45:55.070Z,99139
2017-11-29T06:46:54.079Z,99139
2017-11-29T06:47:55.155Z,99132
2017-11-29T06:48:54.226Z,99140
2017-11-29T06:49:54.295Z,99142
2017-11-29T06:50:54.393Z,99140
2017-11-29T06:51:55.392Z,99142
2017-11-29T06:52:54.428Z,99132
2017-11-29T06:53:55.498Z,99140
2017-11-29T06:54:54.525Z,99142
2017-11-29T06:55:54.657Z,99146
2017-11-29T06:56:55.655Z,99142
2017-11-29T06:57:55.653Z,99145
2017-11-29T06:58:54.734Z,99146
2017-11-29T06:59:54.785Z,99147
2017-11-29T07:00:55.753Z,99141
2017-11-29T07:01:54.871Z,99145
2017-11-29T07:02:55.021Z,99142
2017-11-29T07:03:54.871Z,99149
2017-11-29T07:04:54.953Z,99149
2017-11-29T07:05:55.011Z,99152
2017-11-29T07:06:56.609Z,99149
2017-11-29T07:07:55.149Z,99152
2017-11-29T07:08:55.169Z,99153
2017-11-29T07:09:55.183Z,99154
2017-11-29T07:10:55.254Z,99161
2017-11-29T07:11:56.286Z,99138
2017-11-29T07:12:55.349Z,99158
2017-11-29T07:13:55.414Z,99163
2017-11-29T07:14:57.229Z,99165
2017-11-29T07:15:56.462Z,99166
2017-11-29T07:16:55.547Z,99167
2017-11-29T07:17:56.615Z,99167
2017-11-29T07:18:55.727Z,99171
2017-11-29T07:19:56.762Z,99176
2017-11-29T07:20:56.791Z,99179
2017-11-29T07:21:55.855Z,99180
2017-11-29T07:22:55.857Z,99177
2017-11-29T07:23:55.927Z,99181
2017-11-29T07:24:56.023Z,99184
2017-11-29T07:25:57.104Z,99185
2017-11-29T07:26:56.088Z,99188
2017-11-29T07:27:57.112Z,99191
2017-11-29T07:28:56.186Z,99193
2017-11-29T07:29:56.171Z,99193
2017-11-29T07:30:56.230Z,99184
2017-11-29T07:31:56.299Z,99193
2017-11-29T07:32:56.328Z,99199
2017-11-29T07:33:56.326Z,99188
2017-11-29T07:34:56.355Z,99202
2017-11-29T07:35:57.382Z,99209
2017-11-29T07:36:56.469Z,99209
2017-11-29T07:37:57.571Z,99199
2017-11-29T07:38:57.632Z,99200
2017-11-29T07:39:56.759Z,99199
2017-11-29T07:40:56.797Z,99197
2017-11-29T07:41:56.871Z,99197
2017-11-29T07:42:57.893Z,99193
2017-11-29T07:43:56.910Z,99203
2017-11-29T07:44:57.982Z,99205
2017-11-29T07:45:58.142Z,99206
2017-11-29T07:46:58.112Z,99206
2017-11-29T07:47:58.139Z,99205
2017-11-29T07:48:58.640Z,99193
2017-11-29T07:49:58.284Z,99197
2017-11-29T07:50:58.289Z,99188
2017-11-29T07:51:57.396Z,99192
2017-11-29T07:52:58.358Z,99196
2017-11-29T07:53:58.526Z,99193
2017-11-29T07:54:57.541Z,99196
2017-11-29T07:55:57.610Z,99188
2017-11-29T07:56:58.609Z,99194
2017-11-29T07:57:57.650Z,99195
2017-11-29T07:58:58.669Z,99191
2017-11-29T07:59:57.781Z,99198
2017-11-29T08:00:58.767Z,99199
2017-11-29T08:01:58.012Z,99192
2017-11-29T08:02:57.987Z,99201
2017-11-29T08:03:58.989Z,99204
2017-11-29T08:04:59.016Z,99195
2017-11-29T08:05:59.337Z,99206
2017-11-29T08:06:59.759Z,99207
2017-11-29T08:07:58.156Z,99204
2017-11-29T08:08:58.261Z,99206
2017-11-29T08:09:59.287Z,99207
2017-11-29T08:10:59.351Z,99201
2017-11-29T08:11:59.305Z,99209
2017-11-29T08:12:58.411Z,99205
2017-11-29T08:13:59.391Z,99206
2017-11-29T08:14:59.427Z,99208
2017-11-29T08:15:59.446Z,99205
2017-11-29T08:16:58.542Z,99211
2017-11-29T08:17:59.626Z,99209
2017-11-29T08:18:59.577Z,99209
2017-11-29T08:19:58.697Z,99210
2017-11-29T08:20:58.708Z,99215
2017-11-29T08:21:59.708Z,99211
2017-11-29T08:22:59.761Z,99213
2017-11-29T08:23:59.843Z,99210
2017-11-29T08:24:58.904Z,99223
2017-11-29T08:25:59.028Z,99218
2017-11-29T08:26:59.046Z,99219
2017-11-29T08:27:59.125Z,99219
2017-11-29T08:28:59.189Z,99220
2017-11-29T08:29:59.280Z,99218
2017-11-29T08:31:00.292Z,99209
2017-11-29T08:31:59.503Z,99211
2017-11-29T08:32:59.440Z,99214
2017-11-29T08:33:59.460Z,99214
2017-11-29T08:34:59.552Z,99214
2017-11-29T08:35:59.571Z,99224
2017-11-29T08:37:00.620Z,99221
2017-11-29T08:37:59.800Z,99219
2017-11-29T08:39:00.772Z,99216
2017-11-29T08:39:59.872Z,99215
2017-11-29T08:40:59.932Z,99215
2017-11-29T08:42:00.086Z,99222
2017-11-29T08:43:00.051Z,99228
2017-11-29T08:44:01.127Z,99226
2017-11-29T08:45:00.111Z,99224
2017-11-29T08:46:00.217Z,99228
2017-11-29T08:47:00.244Z,99228
2017-11-29T08:48:01.045Z,99227
2017-11-29T08:49:01.459Z,99228
2017-11-29T08:50:00.272Z,99225
2017-11-29T08:51:00.288Z,99230
2017-11-29T08:52:00.408Z,99227
2017-11-29T08:53:00.388Z,99227
2017-11-29T08:54:01.849Z,99224
2017-11-29T08:55:01.521Z,99225
2017-11-29T08:56:01.539Z,99222
2017-11-29T08:57:00.640Z,99215
2017-11-29T08:58:01.647Z,99227
2017-11-29T08:59:00.772Z,99222
2017-11-29T09:00:00.802Z,99225
2017-11-29T09:01:02.197Z,99213
2017-11-29T09:02:01.859Z,99226
2017-11-29T09:03:01.855Z,99230
2017-11-29T09:04:01.990Z,99228
2017-11-29T09:05:01.938Z,99232
2017-11-29T09:06:01.127Z,99236
2017-11-29T09:07:02.095Z,99231
2017-11-29T09:08:02.269Z,99239
2017-11-29T09:09:01.211Z,99242
2017-11-29T09:10:01.224Z,99248
2017-11-29T09:11:01.402Z,99237
2017-11-29T09:12:01.482Z,99232
2017-11-29T09:13:02.496Z,99247
2017-11-29T09:14:02.441Z,99244
2017-11-29T09:15:01.509Z,99251
2017-11-29T09:16:02.440Z,99255
2017-11-29T09:17:02.432Z,99248
2017-11-29T09:18:01.560Z,99250
2017-11-29T09:19:01.656Z,99242
2017-11-29T09:20:01.846Z,99255
2017-11-29T09:21:01.814Z,99240
2017-11-29T09:22:02.889Z,99248
2017-11-29T09:23:02.104Z,99253
2017-11-29T09:24:03.056Z,99249
2017-11-29T09:25:02.163Z,99261
2017-11-29T09:26:03.229Z,99256
2017-11-29T09:27:03.250Z,99263
2017-11-29T09:28:03.346Z,99261
2017-11-29T09:29:03.398Z,99260
2017-11-29T09:30:02.410Z,99260
2017-11-29T09:31:03.455Z,99267
2017-11-29T09:32:03.483Z,99266
2017-11-29T09:33:02.640Z,99264
2017-11-29T09:34:02.620Z,99263
2017-11-29T09:35:03.622Z,99265
2017-11-29T09:36:03.939Z,99262
2017-11-29T09:37:02.872Z,99262
2017-11-29T09:38:02.865Z,99263
2017-11-29T09:39:03.846Z,99263
2017-11-29T09:40:02.923Z,99264
2017-11-29T09:41:02.976Z,99272
2017-11-29T09:42:02.991Z,99266
2017-11-29T09:43:03.070Z,99272
2017-11-29T09:44:04.043Z,99270
2017-11-29T09:45:03.158Z,99269
2017-11-29T09:46:04.410Z,99267
2017-11-29T09:47:04.891Z,99259
2017-11-29T09:48:03.369Z,99262
2017-11-29T09:49:03.442Z,99271
2017-11-29T09:50:03.519Z,99273
2017-11-29T09:51:04.530Z,99272
2017-11-29T09:52:04.502Z,99267
2017-11-29T09:53:03.920Z,99269
2017-11-29T09:54:03.664Z,99266
2017-11-29T09:55:03.633Z,99274
2017-11-29T09:56:03.637Z,99274
2017-11-29T09:57:04.658Z,99274
2017-11-29T09:58:04.696Z,99265
2017-11-29T09:59:04.677Z,99269
2017-11-29T10:00:03.824Z,99274
2017-11-29T10:01:04.862Z,99274
2017-11-29T10:02:03.968Z,99266
2017-11-29T10:03:04.058Z,99274
2017-11-29T10:04:04.120Z,99271
2017-11-29T10:05:04.183Z,99274
2017-11-29T10:06:04.171Z,99272
2017-11-29T10:07:04.249Z,99276
2017-11-29T10:08:05.289Z,99277
2017-11-29T10:09:04.381Z,99276
2017-11-29T10:10:04.420Z,99265
2017-11-29T10:11:05.541Z,99276
2017-11-29T10:12:04.702Z,99279
2017-11-29T10:13:05.617Z,99276
2017-11-29T10:14:05.620Z,99281
2017-11-29T10:15:05.709Z,99275
2017-11-29T10:16:05.798Z,99268
2017-11-29T10:17:04.956Z,99280
2017-11-29T10:18:04.999Z,99265
2017-11-29T10:19:04.969Z,99275
2017-11-29T10:20:05.107Z,99278
2017-11-29T10:21:05.690Z,99272
2017-11-29T10:22:06.151Z,99273
2017-11-29T10:23:05.207Z,99276
2017-11-29T10:24:06.260Z,99272
2017-11-29T10:25:06.335Z,99263
2017-11-29T10:26:06.382Z,99267
2017-11-29T10:27:06.398Z,99267
2017-11-29T10:28:06.439Z,99265
2017-11-29T10:29:05.472Z,99270
2017-11-29T10:30:06.485Z,99266
2017-11-29T10:31:06.484Z,99267
2017-11-29T10:32:05.516Z,99271
2017-11-29T10:33:06.482Z,99267
2017-11-29T10:34:05.628Z,99264
2017-11-29T10:35:05.697Z,99265
2017-11-29T10:36:05.746Z,99273
2017-11-29T10:37:06.682Z,99268
2017-11-29T10:38:05.715Z,99269
2017-11-29T10:39:05.819Z,99266
2017-11-29T10:40:05.799Z,99260
2017-11-29T10:41:05.904Z,99262
2017-11-29T10:42:06.958Z,99266
2017-11-29T10:43:06.929Z,99263
2017-11-29T10:44:06.041Z,99271
2017-11-29T10:45:07.190Z,99267
2017-11-29T10:46:06.139Z,99269
2017-11-29T10:47:07.163Z,99266
2017-11-29T10:48:07.068Z,99269
2017-11-29T10:49:07.327Z,99264
2017-11-29T10:50:07.346Z,99266
2017-11-29T10:51:06.450Z,99269
2017-11-29T10:52:07.483Z,99259
2017-11-29T10:53:06.602Z,99259
2017-11-29T10:54:06.499Z,99259
2017-11-29T10:55:06.515Z,99259
2017-11-29T10:56:06.565Z,99256
2017-11-29T10:57:06.666Z,99261
2017-11-29T10:58:07.960Z,99262
2017-11-29T10:59:07.744Z,99255
2017-11-29T11:00:06.795Z,99258
2017-11-29T11:01:06.946Z,99251
2017-11-29T11:02:07.883Z,99262
2017-11-29T11:03:06.931Z,99261
2017-11-29T11:04:07.065Z,99262
2017-11-29T11:05:08.050Z,99260
2017-11-29T11:06:07.124Z,99264
2017-11-29T11:07:08.092Z,99265
2017-11-29T11:08:08.116Z,99260
2017-11-29T11:09:08.196Z,99272
2017-11-29T11:10:08.286Z,99269
2017-11-29T11:11:09.870Z,99264
2017-11-29T11:12:08.328Z,99270
2017-11-29T11:13:07.459Z,99268
2017-11-29T11:14:08.427Z,99221
2017-11-29T11:15:08.614Z,99265
2017-11-29T11:16:08.654Z,99276
2017-11-29T11:17:07.643Z,99267
2017-11-29T11:18:08.606Z,99264
2017-11-29T11:19:07.816Z,99262
2017-11-29T11:20:07.901Z,99266
2017-11-29T11:21:08.994Z,99267
2017-11-29T11:22:07.978Z,99261
2017-11-29T11:23:08.795Z,99261
2017-11-29T11:24:08.859Z,99257
2017-11-29T11:25:09.769Z,99259
2017-11-29T11:26:08.991Z,99259
2017-11-29T11:27:09.015Z,99261
2017-11-29T11:28:08.033Z,99255
2017-11-29T11:29:08.477Z,99247
2017-11-29T11:30:09.389Z,99248
2017-11-29T11:31:09.255Z,99239
2017-11-29T11:32:08.297Z,99240
2017-11-29T11:33:08.135Z,99243
2017-11-29T11:34:08.212Z,99242
2017-11-29T11:35:08.246Z,99243
2017-11-29T11:36:09.279Z,99240
2017-11-29T11:37:09.426Z,99241
2017-11-29T11:38:08.442Z,99235
2017-11-29T11:39:09.479Z,99235
2017-11-29T11:40:08.525Z,99228
2017-11-29T11:41:08.533Z,99230
2017-11-29T11:42:08.732Z,99222
2017-11-29T11:43:09.771Z,99227
2017-11-29T11:44:09.730Z,99226
2017-11-29T11:45:09.955Z,99228
2017-11-29T11:46:08.955Z,99224
2017-11-29T11:47:09.949Z,99227
2017-11-29T11:48:10.236Z,99222
2017-11-29T11:49:09.884Z,99223
2017-11-29T11:50:10.656Z,99222
2017-11-29T11:51:13.524Z,99223
2017-11-29T11:52:10.730Z,99225
2017-11-29T11:53:10.094Z,99228
2017-11-29T11:54:09.115Z,99227
2017-11-29T11:55:10.845Z,99224
2017-11-29T11:56:10.185Z,99216
2017-11-29T11:57:10.244Z,99220
2017-11-29T11:58:10.578Z,99218
2017-11-29T11:59:10.398Z,99221
2017-11-29T12:00:09.548Z,99221
2017-11-29T12:01:10.442Z,99223
2017-11-29T12:02:09.544Z,99217
2017-11-29T12:03:09.876Z,99225
2017-11-29T12:04:09.665Z,99218
2017-11-29T12:05:09.733Z,99216
2017-11-29T12:06:10.660Z,99218
2017-11-29T12:07:10.877Z,99221
2017-11-29T12:08:10.854Z,99219
2017-11-29T12:09:11.636Z,99216
2017-11-29T12:10:10.933Z,99217
2017-11-29T12:11:09.944Z,99222
2017-11-29T12:12:10.064Z,99220
2017-11-29T12:13:10.242Z,99214
2017-11-29T12:14:10.132Z,99212
2017-11-29T12:15:10.154Z,99214
2017-11-29T12:16:10.256Z,99212
2017-11-29T12:17:10.300Z,99207
2017-11-29T12:18:11.395Z,99212
2017-11-29T12:19:10.386Z,99217
2017-11-29T12:20:11.465Z,99217
2017-11-29T12:21:10.528Z,99221
2017-11-29T12:22:11.760Z,99215
2017-11-29T12:23:10.614Z,99215
2017-11-29T12:24:10.871Z,99215
2017-11-29T12:25:11.881Z,99215
2017-11-29T12:26:10.899Z,99215
2017-11-29T12:27:11.763Z,99209
2017-11-29T12:28:11.845Z,99213
2017-11-29T12:29:10.958Z,99211
2017-11-29T12:30:12.129Z,99209
2017-11-29T12:31:12.167Z,99217
2017-11-29T12:32:11.161Z,99211
2017-11-29T12:33:12.098Z,99208
2017-11-29T12:34:11.198Z,99213
2017-11-29T12:35:11.329Z,99203
2017-11-29T12:36:11.519Z,99211
2017-11-29T12:37:11.391Z,99200
2017-11-29T12:38:11.463Z,99205
2017-11-29T12:39:12.389Z,99202
2017-11-29T12:40:11.494Z,99208
2017-11-29T12:41:12.508Z,99204
2017-11-29T12:42:11.623Z,99204
2017-11-29T12:43:12.623Z,99204
2017-11-29T12:44:11.699Z,99203
2017-11-29T12:45:12.779Z,99203
2017-11-29T12:46:12.825Z,99204
2017-11-29T12:47:13.061Z,99201
2017-11-29T12:48:11.920Z,99201
2017-11-29T12:49:12.995Z,99199
2017-11-29T12:50:12.100Z,99200
2017-11-29T12:51:12.772Z,99200
2017-11-29T12:52:12.151Z,99196
2017-11-29T12:53:13.203Z,99197